Time;durP1;ratioP1;P1;durP2;ratioP2;P2;SDS_P1;SDS_P2;PMS_P1;PMS_P2;Temp;Humidity;BMP_temperature;BMP_pressure;BME280_temperature;BME280_humidity;BME280_pressure;Samples;Min_cycle;Max_cycle;Signal;HPM_P1;HPM_P2
2020/12/24 00:00:30;;;;;;;28.98;13.95;;;;;;;4.43;100.00;101337.19;1806048;79;21136;-55
2020/12/24 00:02:57;;;;;;;33.80;14.70;;;;;;;4.42;100.00;101339.41;1806035;79;21390;-55
2020/12/24 00:05:25;;;;;;;34.58;15.10;;;;;;;4.39;100.00;101342.93;1805919;79;21104;-55
2020/12/24 00:07:52;;;;;;;30.12;14.40;;;;;;;4.36;100.00;101342.06;1806032;79;21053;-55
2020/12/24 00:10:20;;;;;;;32.20;14.95;;;;;;;4.36;100.00;101338.09;1806007;79;21044;-55
2020/12/24 00:12:47;;;;;;;31.42;14.53;;;;;;;4.39;100.00;101336.75;1805959;79;21053;-55
2020/12/24 00:15:16;;;;;;;32.73;15.63;;;;;;;4.39;100.00;101332.77;1806004;79;21702;-55
2020/12/24 00:17:45;;;;;;;33.53;15.08;;;;;;;4.40;100.00;101334.54;1805930;79;21111;-54
2020/12/24 00:20:14;;;;;;;32.48;14.63;;;;;;;4.38;100.00;101331.87;1805962;79;21148;-55
2020/12/24 00:22:42;;;;;;;34.18;14.83;;;;;;;4.35;100.00;101325.23;1805316;79;21342;-54
2020/12/24 00:25:10;;;;;;;32.88;15.58;;;;;;;4.35;100.00;101326.56;1802062;79;21041;-55
2020/12/24 00:27:38;;;;;;;31.55;14.65;;;;;;;4.34;100.00;101331.44;1801981;79;21813;-54
2020/12/24 00:30:05;;;;;;;29.67;14.43;;;;;;;4.36;100.00;101330.12;1802123;79;21104;-55
2020/12/24 00:32:34;;;;;;;35.65;16.75;;;;;;;4.34;100.00;101333.22;1802087;79;21438;-54
2020/12/24 00:35:01;;;;;;;32.30;15.85;;;;;;;4.32;100.00;101326.57;1802013;79;21192;-55
2020/12/24 00:37:29;;;;;;;34.80;15.50;;;;;;;4.34;100.00;101322.60;1783054;79;21114;-55
2020/12/24 00:39:56;;;;;;;35.83;17.55;;;;;;;4.36;100.00;101324.34;1770321;81;21719;-56
2020/12/24 00:42:24;;;;;;;36.93;16.93;;;;;;;4.38;100.00;101332.33;1770207;81;21160;-56
2020/12/24 00:44:51;;;;;;;34.08;16.20;;;;;;;4.38;100.00;101334.98;1770352;81;21016;-56
2020/12/24 00:47:19;;;;;;;36.70;17.25;;;;;;;4.38;100.00;101328.34;1770258;81;21142;-55
2020/12/24 00:49:47;;;;;;;39.90;17.62;;;;;;;4.38;100.00;101328.34;1770344;81;21134;-54
2020/12/24 00:52:15;;;;;;;37.53;17.50;;;;;;;4.39;100.00;101323.48;1770259;81;21439;-57
2020/12/24 00:54:42;;;;;;;39.10;16.95;;;;;;;4.43;100.00;101327.47;1770313;81;21186;-54
2020/12/24 00:57:11;;;;;;;40.25;17.62;;;;;;;4.43;100.00;101330.12;1770320;81;21071;-54
2020/12/24 00:59:39;;;;;;;37.05;17.05;;;;;;;4.43;100.00;101334.53;1783068;79;21067;-54
2020/12/24 01:02:08;;;;;;;33.00;17.00;;;;;;;4.41;100.00;101329.67;1785755;80;21067;-54
2020/12/24 01:04:35;;;;;;;36.20;16.73;;;;;;;4.38;100.00;101323.04;1785764;80;21143;-54
2020/12/24 01:07:03;;;;;;;36.55;16.73;;;;;;;4.40;100.00;101326.58;1785751;80;21097;-56
2020/12/24 01:09:32;;;;;;;38.63;17.62;;;;;;;4.42;100.00;101321.72;1785768;80;21185;-55
2020/12/24 01:11:59;;;;;;;32.98;15.83;;;;;;;4.45;100.00;101318.16;1785853;80;21074;-53
2020/12/24 01:14:27;;;;;;;39.92;17.60;;;;;;;4.47;100.00;101313.73;1785718;80;21050;-53
2020/12/24 01:16:55;;;;;;;42.05;18.37;;;;;;;4.48;100.00;101315.50;1817982;79;21381;-55
2020/12/24 01:19:22;;;;;;;39.33;18.42;;;;;;;4.47;100.00;101312.86;1785766;80;21189;-54
2020/12/24 01:21:50;;;;;;;39.67;18.65;;;;;;;4.46;100.00;101311.95;1784117;80;20976;-55
2020/12/24 01:24:17;;;;;;;42.50;19.60;;;;;;;4.47;100.00;101315.05;1785719;80;21078;-55
2020/12/24 01:26:48;;;;;;;38.60;18.95;;;;;;;4.46;100.00;101305.78;1785672;80;21102;-55
2020/12/24 01:29:15;;;;;;;40.75;18.80;;;;;;;4.47;100.00;101303.56;1785412;80;21483;-55
2020/12/24 01:31:48;;;;;;;41.60;19.17;;;;;;;4.47;100.00;101303.11;1785679;80;21563;-54
2020/12/24 01:34:19;;;;;;;42.38;19.32;;;;;;;4.44;100.00;101300.45;1785650;80;21134;-56
2020/12/24 01:36:47;;;;;;;38.95;19.73;;;;;;;4.38;100.00;101304.45;1778894;80;21113;-53
2020/12/24 01:39:14;;;;;;;42.83;19.32;;;;;;;4.36;100.00;101304.90;1775432;80;21138;-54
2020/12/24 01:41:42;;;;;;;37.95;18.42;;;;;;;4.36;100.00;101311.53;1764016;81;21764;-54
2020/12/24 01:44:09;;;;;;;40.65;19.80;;;;;;;4.37;100.00;101307.99;1776573;80;21067;-55
2020/12/24 01:46:39;;;;;;;39.85;20.27;;;;;;;4.36;100.00;101313.73;1764058;81;21066;-54
2020/12/24 01:49:08;;;;;;;41.20;20.70;;;;;;;4.37;100.00;101313.30;1773745;80;21075;-54
2020/12/24 01:51:36;;;;;;;39.85;19.25;;;;;;;4.38;100.00;101309.30;1764151;81;21101;-54
2020/12/24 01:54:04;;;;;;;40.58;19.42;;;;;;;4.42;100.00;101302.23;1764048;81;21417;-54
2020/12/24 01:56:31;;;;;;;39.38;19.42;;;;;;;4.43;100.00;101299.59;1776674;80;21091;-55
2020/12/24 01:59:00;;;;;;;36.60;19.32;;;;;;;4.43;100.00;101298.69;1764148;81;21483;-55
2020/12/24 02:01:28;;;;;;;43.63;20.17;;;;;;;4.48;100.00;101288.94;1775615;80;21206;-54
2020/12/24 02:03:55;;;;;;;40.80;19.35;;;;;;;4.48;100.00;101296.91;1764310;81;21172;-54
2020/12/24 02:06:23;;;;;;;40.43;19.57;;;;;;;4.46;100.00;101301.80;1775689;80;21410;-53
2020/12/24 02:08:53;;;;;;;39.13;19.62;;;;;;;4.45;100.00;101296.91;1763001;81;21144;-54
2020/12/24 02:11:21;;;;;;;34.78;18.75;;;;;;;4.45;100.00;101294.26;1776745;80;21063;-55
2020/12/24 02:13:49;;;;;;;40.30;20.37;;;;;;;4.49;100.00;101292.50;1776834;80;21535;-54
2020/12/24 02:16:16;;;;;;;42.67;19.75;;;;;;;4.53;100.00;101295.16;1764298;81;21105;-54
2020/12/24 02:18:44;;;;;;;41.10;19.65;;;;;;;4.56;100.00;101292.49;1775631;80;21388;-54
2020/12/24 02:21:11;;;;;;;39.40;20.27;;;;;;;4.59;100.00;101299.13;1764145;81;21046;-54
2020/12/24 02:23:39;;;;;;;41.28;19.10;;;;;;;4.61;100.00;101294.25;1776605;80;21076;-54
2020/12/24 02:26:07;;;;;;;38.88;19.10;;;;;;;4.57;100.00;101290.28;1764226;81;21104;-55
2020/12/24 02:28:35;;;;;;;37.73;18.60;;;;;;;4.55;100.00;101292.05;1775751;80;21099;-54
2020/12/24 02:31:03;;;;;;;40.08;19.12;;;;;;;4.50;100.00;101283.18;1764243;81;21692;-55
2020/12/24 02:33:30;;;;;;;40.73;18.92;;;;;;;4.46;100.00;101285.87;1776832;80;21074;-55
2020/12/24 02:35:58;;;;;;;37.50;19.62;;;;;;;4.46;100.00;101285.41;1764249;81;21070;-55
2020/12/24 02:38:27;;;;;;;41.50;20.12;;;;;;;4.41;100.00;101287.19;1756674;81;21070;-55
2020/12/24 02:40:55;;;;;;;42.70;20.30;;;;;;;4.39;100.00;101283.66;1789507;80;21154;-55
2020/12/24 02:43:23;;;;;;;38.53;19.57;;;;;;;4.40;100.00;101282.77;1754742;81;21704;-55
2020/12/24 02:45:50;;;;;;;37.98;20.05;;;;;;;4.40;100.00;101286.28;1754722;81;20971;-54
2020/12/24 02:48:18;;;;;;;43.42;20.60;;;;;;;4.42;100.00;101289.86;1754781;81;21086;-55
2020/12/24 02:50:46;;;;;;;39.20;19.27;;;;;;;4.46;100.00;101292.05;1754874;81;21105;-53
2020/12/24 02:53:14;;;;;;;40.63;20.62;;;;;;;4.49;100.00;101290.70;1754812;81;21149;-54
2020/12/24 02:55:41;;;;;;;43.10;20.08;;;;;;;4.50;100.00;101291.61;1754869;81;21192;-53
2020/12/24 02:58:09;;;;;;;38.80;19.57;;;;;;;4.52;100.00;101289.38;1759510;80;21170;-54
2020/12/24 03:00:36;;;;;;;39.73;19.65;;;;;;;4.52;100.00;101292.48;1785966;80;21408;-53
2020/12/24 03:03:04;;;;;;;39.63;19.12;;;;;;;4.49;100.00;101290.70;1818076;79;21177;-54
2020/12/24 03:05:32;;;;;;;42.75;20.10;;;;;;;4.47;100.00;101288.50;1785843;80;21143;-54
2020/12/24 03:08:00;;;;;;;39.00;19.77;;;;;;;4.49;100.00;101289.84;1785807;80;21703;-54
2020/12/24 03:10:27;;;;;;;43.80;20.72;;;;;;;4.49;100.00;101278.76;1785757;80;21131;-54
2020/12/24 03:12:55;;;;;;;41.30;19.90;;;;;;;4.47;100.00;101284.52;1785786;80;21130;-54
2020/12/24 03:15:22;;;;;;;40.03;19.48;;;;;;;4.44;100.00;101292.48;1785816;80;21134;-54
2020/12/24 03:17:50;;;;;;;42.03;20.48;;;;;;;4.43;100.00;101288.97;1785837;80;21107;-55
2020/12/24 03:20:18;;;;;;;38.50;19.85;;;;;;;4.44;100.00;101279.22;1785861;80;21714;-55
2020/12/24 03:22:45;;;;;;;39.20;19.70;;;;;;;4.48;100.00;101280.97;1785696;80;21126;-55
2020/12/24 03:25:12;;;;;;;40.43;20.52;;;;;;;4.53;100.00;101279.22;1785752;80;21149;-55
2020/12/24 03:27:40;;;;;;;43.58;21.93;;;;;;;4.58;100.00;101286.73;1785831;80;21070;-54
2020/12/24 03:30:09;;;;;;;39.20;19.00;;;;;;;4.61;100.00;101283.63;1785778;80;21058;-55
2020/12/24 03:32:37;;;;;;;41.88;19.92;;;;;;;4.59;100.00;101280.96;1785788;80;21198;-54
2020/12/24 03:35:05;;;;;;;37.30;18.65;;;;;;;4.58;100.00;101280.52;1785733;80;21108;-55
2020/12/24 03:37:33;;;;;;;41.30;20.10;;;;;;;4.57;100.00;101280.98;1787315;80;21182;-54
2020/12/24 03:40:00;;;;;;;40.70;20.12;;;;;;;4.55;100.00;101276.12;1789352;80;21039;-55
2020/12/24 03:42:28;;;;;;;42.38;20.10;;;;;;;4.57;100.00;101280.08;1789391;80;21072;-54
2020/12/24 03:44:55;;;;;;;46.77;21.48;;;;;;;4.61;100.00;101283.63;1789417;80;21693;-55
2020/12/24 03:47:23;;;;;;;43.87;20.40;;;;;;;4.63;100.00;101287.16;1789378;80;21151;-54
2020/12/24 03:49:50;;;;;;;38.50;19.85;;;;;;;4.64;100.00;101283.62;1789504;80;21068;-55
2020/12/24 03:52:18;;;;;;;40.48;19.82;;;;;;;4.67;100.00;101286.27;1789408;80;21060;-54
2020/12/24 03:54:47;;;;;;;42.58;19.35;;;;;;;4.67;100.00;101283.61;1789373;80;21138;-54
2020/12/24 03:57:14;;;;;;;39.90;19.32;;;;;;;4.65;100.00;101280.08;1789428;80;21359;-54
2020/12/24 03:59:42;;;;;;;42.38;20.25;;;;;;;4.62;100.00;101274.77;1789397;80;21060;-54
2020/12/24 04:02:10;;;;;;;43.58;20.12;;;;;;;4.58;100.00;101264.16;1789385;80;21064;-54
2020/12/24 04:04:38;;;;;;;43.30;20.90;;;;;;;4.61;100.00;101265.03;1789272;80;21071;-55
2020/12/24 04:07:06;;;;;;;42.45;20.37;;;;;;;4.61;100.00;101259.72;1789400;80;21230;-54
2020/12/24 04:09:34;;;;;;;40.75;18.50;;;;;;;4.64;100.00;101263.27;1789340;80;21682;-54
2020/12/24 04:12:03;;;;;;;38.40;18.98;;;;;;;4.67;100.00;101259.70;1789243;80;21147;-54
2020/12/24 04:14:31;;;;;;;41.28;19.17;;;;;;;4.67;100.00;101263.26;1789331;80;21133;-54
2020/12/24 04:16:59;;;;;;;36.88;19.07;;;;;;;4.66;100.00;101257.94;1789412;80;21119;-54
2020/12/24 04:19:27;;;;;;;42.13;19.07;;;;;;;4.64;100.00;101261.94;1789391;80;21123;-54
2020/12/24 04:21:54;;;;;;;44.03;20.32;;;;;;;4.63;100.00;101260.60;1789379;80;21346;-55
2020/12/24 04:24:22;;;;;;;39.88;18.12;;;;;;;4.64;100.00;101265.02;1789204;79;21074;-54
2020/12/24 04:26:49;;;;;;;42.58;20.45;;;;;;;4.63;100.00;101268.56;1789417;80;21070;-55
2020/12/24 04:29:17;;;;;;;42.35;19.32;;;;;;;4.62;100.00;101264.14;1789465;80;21130;-54
2020/12/24 04:31:44;;;;;;;43.10;20.72;;;;;;;4.58;100.00;101254.86;1789374;80;21111;-55
2020/12/24 04:34:12;;;;;;;42.80;20.15;;;;;;;4.57;100.00;101250.44;1789321;80;21368;-54
2020/12/24 04:36:40;;;;;;;45.55;19.98;;;;;;;4.56;100.00;101251.33;1786450;80;21072;-55
2020/12/24 04:39:07;;;;;;;42.43;19.87;;;;;;;4.53;100.00;101250.02;1778339;80;21047;-54
2020/12/24 04:41:35;;;;;;;45.48;19.37;;;;;;;4.52;100.00;101253.52;1770642;80;21145;-54
2020/12/24 04:44:03;;;;;;;40.95;18.95;;;;;;;4.54;100.00;101259.74;1764630;81;21154;-54
2020/12/24 04:46:31;;;;;;;46.42;20.45;;;;;;;4.56;100.00;101261.95;1764618;81;21347;-55
2020/12/24 04:48:58;;;;;;;42.03;20.68;;;;;;;4.54;100.00;101257.09;1764569;81;21210;-54
2020/12/24 04:51:26;;;;;;;45.60;20.80;;;;;;;4.54;100.00;101259.74;1732756;81;21138;-55
2020/12/24 04:53:53;;;;;;;46.60;20.00;;;;;;;4.56;100.00;101257.06;1764619;81;21125;-55
2020/12/24 04:56:21;;;;;;;45.20;20.50;;;;;;;4.54;100.00;101255.76;1764691;81;21079;-55
2020/12/24 04:58:48;;;;;;;44.00;20.48;;;;;;;4.54;100.00;101254.86;1773699;79;21385;-55
2020/12/24 05:01:17;;;;;;;43.78;20.85;;;;;;;4.54;100.00;101253.10;1795189;80;21109;-55
2020/12/24 05:03:45;;;;;;;48.63;20.45;;;;;;;4.55;100.00;101248.23;1785737;80;21145;-54
2020/12/24 05:06:14;;;;;;;43.00;20.65;;;;;;;4.58;100.00;101252.20;1785743;80;21121;-54
2020/12/24 05:08:53;;;;;;;46.25;20.27;;;;;;;4.58;100.00;101250.87;1785982;80;22342;-54
2020/12/24 05:11:29;;;;;;;40.48;19.65;;;;;;;4.58;100.00;101248.22;1785745;80;21184;-54
2020/12/24 05:14:17;;;;;;;49.70;20.97;;;;;;;4.58;100.00;101257.52;1785827;80;21046;-54
2020/12/24 05:17:05;;;;;;;44.70;21.90;;;;;;;4.57;100.00;101253.52;1785846;80;21142;-55
2020/12/24 05:19:48;;;;;;;44.10;20.77;;;;;;;4.54;100.00;101246.89;1818042;79;21234;-54
2020/12/24 05:22:17;;;;;;;41.70;19.45;;;;;;;4.52;100.00;101242.90;1785678;80;21126;-54
2020/12/24 05:24:45;;;;;;;50.12;20.62;;;;;;;4.51;100.00;101241.13;1784001;80;21367;-54
2020/12/24 05:27:20;;;;;;;43.80;21.02;;;;;;;4.53;100.00;101244.70;1785728;80;21149;-54
2020/12/24 05:29:51;;;;;;;44.85;20.32;;;;;;;4.55;100.00;101240.27;1785848;80;21126;-54
2020/12/24 05:32:28;;;;;;;47.27;20.60;;;;;;;4.54;100.00;101238.50;1785746;80;21062;-55
2020/12/24 05:35:09;;;;;;;44.50;20.27;;;;;;;4.53;100.00;101231.42;1785882;80;21094;-54
2020/12/24 05:37:37;;;;;;;44.77;20.92;;;;;;;4.52;100.00;101234.93;1765568;80;21562;-55
2020/12/24 05:40:24;;;;;;;46.90;20.85;;;;;;;4.54;100.00;101233.19;1754721;81;20974;-54
2020/12/24 05:42:56;;;;;;;48.17;23.85;;;;;;;4.62;100.00;101227.83;1788806;80;21082;-55
2020/12/24 05:45:26;;;;;;;55.20;23.92;;;;;;;4.70;100.00;101230.47;1789552;80;21189;-55
2020/12/24 05:48:14;;;;;;;51.77;21.48;;;;;;;4.77;100.00;101237.55;1789617;80;21227;-55
2020/12/24 05:50:43;;;;;;;52.60;23.90;;;;;;;4.83;100.00;101240.19;1789687;80;22403;-54
2020/12/24 05:53:12;;;;;;;54.58;23.02;;;;;;;4.87;100.00;101249.03;1789558;80;21622;-54
2020/12/24 05:55:41;;;;;;;51.37;21.77;;;;;;;4.89;100.00;101241.94;1789637;80;21538;-55
2020/12/24 05:58:09;;;;;;;54.70;22.07;;;;;;;4.91;100.00;101237.94;1789533;80;21073;-54
2020/12/24 06:00:41;;;;;;;53.73;21.00;;;;;;;4.93;100.00;101250.77;1789484;80;21106;-55
2020/12/24 06:03:19;;;;;;;51.80;21.85;;;;;;;4.95;100.00;101248.98;1789433;80;21189;-54
2020/12/24 06:06:00;;;;;;;50.08;22.65;;;;;;;4.98;100.00;101249.00;1789366;80;21007;-55
2020/12/24 06:08:30;;;;;;;52.67;23.18;;;;;;;4.97;100.00;101253.41;1789494;80;21058;-55
2020/12/24 06:11:07;;;;;;;47.27;20.95;;;;;;;4.96;100.00;101250.75;1789474;80;21042;-55
2020/12/24 06:13:43;;;;;;;42.13;19.90;;;;;;;4.98;100.00;101251.66;1789543;80;21121;-55
2020/12/24 06:16:12;;;;;;;49.53;21.37;;;;;;;4.96;100.00;101250.75;1789478;80;21185;-55
2020/12/24 06:18:47;;;;;;;45.00;19.75;;;;;;;4.92;100.00;101253.88;1786577;80;21492;-55
2020/12/24 06:21:17;;;;;;;41.80;19.98;;;;;;;4.90;100.00;101244.14;1785870;80;21127;-53
2020/12/24 06:23:49;;;;;;;40.70;19.55;;;;;;;4.96;100.00;101248.09;1817984;79;21110;-54
2020/12/24 06:26:20;;;;;;;45.25;20.68;;;;;;;4.99;100.00;101238.81;1785770;80;21118;-53
2020/12/24 06:28:50;;;;;;;44.30;22.45;;;;;;;5.06;100.00;101242.30;1784223;80;21339;-54
2020/12/24 06:31:18;;;;;;;43.38;20.52;;;;;;;5.08;100.00;101245.40;1756107;80;21181;-55
2020/12/24 06:33:45;;;;;;;43.00;18.35;;;;;;;5.11;100.00;101242.72;1785942;80;21218;-55
2020/12/24 06:36:33;;;;;;;50.55;20.62;;;;;;;5.16;100.00;101239.59;1784920;80;21198;-55
2020/12/24 06:39:01;;;;;;;40.10;19.67;;;;;;;5.20;100.00;101234.29;1789249;80;21246;-55
2020/12/24 06:41:38;;;;;;;47.67;20.23;;;;;;;5.23;100.00;101231.15;1789216;80;21367;-55
2020/12/24 06:44:06;;;;;;;46.53;20.35;;;;;;;5.28;100.00;101231.13;1789072;80;21114;-54
2020/12/24 06:46:58;;;;;;;38.10;18.87;;;;;;;5.34;100.00;101236.41;1789026;80;21149;-55
2020/12/24 06:49:32;;;;;;;42.23;19.82;;;;;;;5.38;100.00;101243.47;1789187;79;21145;-55
2020/12/24 06:51:59;;;;;;;41.18;18.65;;;;;;;5.44;100.00;101241.23;1788896;80;21113;-55
2020/12/24 06:54:28;;;;;;;37.93;18.07;;;;;;;5.50;100.00;101234.53;1789204;80;21189;-55
2020/12/24 06:57:24;;;;;;;43.83;20.23;;;;;;;5.55;100.00;101237.18;1789080;80;21146;-55
2020/12/24 07:00:17;;;;;;;46.83;18.80;;;;;;;5.58;100.00;101229.17;1789165;80;21073;-55
2020/12/24 07:02:49;;;;;;;37.78;17.87;;;;;;;5.58;100.00;101239.38;1777318;80;21162;-56
2020/12/24 07:05:43;;;;;;;42.30;18.55;;;;;;;5.63;99.97;101239.33;1789277;80;21133;-55
2020/12/24 07:08:35;;;;;;;41.20;18.92;;;;;;;5.72;99.79;101245.94;1789309;80;26557;-55
2020/12/24 07:11:04;;;;;;;40.50;19.85;;;;;;;5.72;99.79;101245.94;1789090;80;21031;-56
2020/12/24 07:13:43;;;;;;;42.33;19.40;;;;;;;5.78;99.63;101244.13;1789156;79;21111;-54
2020/12/24 07:16:13;;;;;;;42.30;18.75;;;;;;;5.82;99.53;101253.84;1789145;80;21117;-55
2020/12/24 07:18:41;;;;;;;45.85;19.57;;;;;;;5.86;99.34;101244.97;1789163;80;21038;-55
2020/12/24 07:21:10;;;;;;;38.17;18.98;;;;;;;5.87;98.84;101249.39;1789146;80;21369;-55
2020/12/24 07:23:40;;;;;;;40.08;19.20;;;;;;;5.86;98.55;101253.81;1789115;80;21098;-55
2020/12/24 07:26:10;;;;;;;41.40;18.95;;;;;;;5.87;98.21;101250.72;1790645;80;21491;-55
2020/12/24 07:28:41;;;;;;;45.75;20.80;;;;;;;5.89;98.49;101243.61;1791124;80;21043;-55
2020/12/24 07:31:10;;;;;;;44.10;20.70;;;;;;;5.89;98.49;101243.61;1762956;81;21512;-55
2020/12/24 07:33:45;;;;;;;39.85;20.20;;;;;;;5.93;98.42;101249.34;1794206;79;21352;-54
2020/12/24 07:36:12;;;;;;;;;;;;;;;5.95;98.30;101247.55;1785045;79;21086;-54
2020/12/24 07:38:39;;;;;;;38.83;19.48;;;;;;;5.98;98.24;101251.52;1796862;79;20237;-56
2020/12/24 07:41:16;;;;;;;39.92;18.95;;;;;;;6.02;98.12;101251.95;1769048;79;21046;-55
2020/12/24 07:43:43;;;;;;;41.98;18.95;;;;;;;6.07;97.67;101244.37;1797550;79;21141;-55
2020/12/24 07:46:11;;;;;;;45.17;21.33;;;;;;;6.07;97.67;101244.37;1797500;79;21789;-55
2020/12/24 07:48:39;;;;;;;39.38;19.75;;;;;;;6.07;97.30;101251.02;1797472;79;21070;-54
2020/12/24 07:51:08;;;;;;;48.05;21.65;;;;;;;6.07;97.47;101249.69;1797634;79;21533;-55
2020/12/24 07:53:35;;;;;;;47.03;19.85;;;;;;;6.13;97.23;101262.51;1797469;79;21152;-55
2020/12/24 07:58:45;;;;;;;41.70;19.83;;;;;;;6.23;97.16;101259.33;1872810;76;23357;-55
2020/12/24 08:01:13;;;;;;;43.35;20.48;;;;;;;6.22;97.09;101261.55;1820624;78;20926;-55
2020/12/24 08:03:43;;;;;;;39.30;20.43;;;;;;;6.27;97.07;101255.73;1758177;78;21350;-55
2020/12/24 08:06:11;;;;;;;39.42;20.17;;;;;;;6.27;97.07;101255.73;1827360;78;21025;-55
2020/12/24 08:08:39;;;;;;;39.33;19.65;;;;;;;6.39;96.60;101259.20;1798289;78;21100;-54
2020/12/24 08:11:09;;;;;;;38.95;18.82;;;;;;;6.39;96.60;101259.20;1794996;79;20926;-54
2020/12/24 08:13:37;;;;;;;40.95;20.45;;;;;;;6.44;96.26;101262.69;1748088;82;21021;-54
2020/12/24 08:16:06;;;;;;;40.63;19.73;;;;;;;6.43;96.11;101262.25;1755908;81;21405;-54
2020/12/24 08:18:36;;;;;;;42.67;21.07;;;;;;;6.47;96.04;101259.98;1728455;81;21065;-55
2020/12/24 08:21:22;;;;;;;43.00;20.72;;;;;;;6.47;95.96;101262.66;1728538;81;21049;-55
2020/12/24 08:23:52;;;;;;;43.28;20.08;;;;;;;6.50;96.11;101258.62;1770121;80;21093;-53
2020/12/24 08:26:20;;;;;;;50.48;20.62;;;;;;;6.59;95.95;101260.31;1758309;80;21064;-55
2020/12/24 08:28:54;;;;;;;42.58;20.92;;;;;;;6.64;95.86;101249.63;1757250;80;21245;-55
2020/12/24 08:31:23;;;;;;;50.17;19.95;;;;;;;6.68;95.72;101244.69;1771528;80;21208;-55
2020/12/24 08:33:53;;;;;;;37.73;19.32;;;;;;;6.71;95.46;101241.98;1755851;80;21148;-53
2020/12/24 08:36:23;;;;;;;34.50;18.30;;;;;;;6.79;95.29;101238.80;1759776;80;21071;-54
2020/12/24 08:38:50;;;;;;;37.90;18.55;;;;;;;6.84;95.00;101244.05;1756407;80;21053;-55
2020/12/24 08:41:20;;;;;;;40.67;19.48;;;;;;;6.88;94.72;101240.02;1767779;80;21377;-55
2020/12/24 08:43:54;;;;;;;41.68;19.25;;;;;;;6.92;94.56;101231.54;1775428;80;21128;-54
2020/12/24 08:46:23;;;;;;;38.67;18.67;;;;;;;6.98;94.41;101227.45;1781315;80;21477;-54
2020/12/24 08:48:51;;;;;;;43.80;20.35;;;;;;;7.03;94.12;101224.74;1755965;81;22350;-54
2020/12/24 08:51:19;;;;;;;41.58;20.02;;;;;;;7.06;93.96;101228.70;1755963;81;21501;-54
2020/12/24 08:53:51;;;;;;;42.43;20.37;;;;;;;7.08;93.80;101226.89;1755252;81;22504;-53
2020/12/24 08:56:19;;;;;;;39.80;19.10;;;;;;;7.10;93.79;101217.09;1756612;80;21072;-54
2020/12/24 08:58:52;;;;;;;42.93;20.60;;;;;;;7.18;93.90;101212.98;1771931;80;21121;-55
2020/12/24 09:01:21;;;;;;;41.88;20.05;;;;;;;7.24;93.80;101210.70;1786702;80;21144;-55
2020/12/24 09:03:49;;;;;;;39.55;19.45;;;;;;;7.30;93.59;101207.50;1786674;80;21196;-54
2020/12/24 09:06:18;;;;;;;40.23;20.43;;;;;;;7.35;93.14;101202.55;1787007;80;21405;-55
2020/12/24 09:08:49;;;;;;;38.90;19.02;;;;;;;7.33;92.82;101191.88;1786694;80;21026;-55
2020/12/24 09:11:28;;;;;;;42.83;19.10;;;;;;;7.36;92.69;101182.50;1786326;80;21125;-56
2020/12/24 09:14:02;;;;;;;39.10;19.90;;;;;;;7.37;92.53;101178.92;1767866;80;21168;-54
2020/12/24 09:16:32;;;;;;;38.55;20.57;;;;;;;7.42;92.55;101178.43;1755345;81;20927;-54
2020/12/24 09:19:07;;;;;;;38.55;19.48;;;;;;;7.48;92.43;101175.23;1755569;80;21545;-53
2020/12/24 09:21:36;;;;;;;39.85;18.65;;;;;;;7.55;92.21;101172.45;1755216;81;21569;-54
2020/12/24 09:24:09;;;;;;;37.45;17.98;;;;;;;7.62;91.82;101169.20;1754274;81;21144;-54
2020/12/24 09:26:49;;;;;;;38.40;19.65;;;;;;;7.66;91.24;101162.94;1755403;81;21010;-53
2020/12/24 09:29:18;;;;;;;38.05;17.85;;;;;;;7.68;91.05;101163.79;1755249;81;21116;-52
2020/12/24 09:32:01;;;;;;;35.33;18.07;;;;;;;7.69;91.14;101156.21;1755314;81;21457;-53
2020/12/24 09:34:29;;;;;;;59.50;20.02;;;;;;;7.72;90.97;101157.48;1762394;80;21180;-53
2020/12/24 09:36:57;;;;;;;34.65;18.55;;;;;;;7.76;91.00;101146.32;1759317;80;21018;-54
2020/12/24 09:39:24;;;;;;;35.98;18.87;;;;;;;7.82;90.66;101143.97;1758823;80;21184;-53
2020/12/24 09:41:52;;;;;;;93.33;23.10;;;;;;;7.84;90.47;101151.06;1755339;81;21061;-53
2020/12/24 09:44:20;;;;;;;37.75;17.67;;;;;;;7.89;90.32;101145.66;1758153;80;21792;-54
2020/12/24 09:46:48;;;;;;;34.88;18.25;;;;;;;7.91;89.95;101148.27;1766237;80;21148;-54
2020/12/24 09:49:17;;;;;;;39.78;18.77;;;;;;;7.94;89.77;101146.88;1770666;78;21109;-52
2020/12/24 09:51:47;;;;;;;48.68;19.67;;;;;;;7.94;89.83;101143.77;1755723;80;21188;-54
2020/12/24 09:54:17;;;;;;;39.48;18.50;;;;;;;7.99;89.90;101141.03;1755918;80;21637;-53
2020/12/24 09:56:44;;;;;;;39.27;17.90;;;;;;;8.01;89.66;101131.20;1767988;80;21575;-53
2020/12/24 09:59:14;;;;;;;38.02;17.80;;;;;;;8.03;89.37;101133.39;1757795;80;21225;-53
2020/12/24 10:01:45;;;;;;;39.53;19.05;;;;;;;8.03;89.12;101140.92;1744666;80;21196;-53
2020/12/24 10:04:15;;;;;;;33.90;17.73;;;;;;;8.06;89.13;101137.33;1762588;80;21172;-53
2020/12/24 10:06:42;;;;;;;112.80;24.85;;;;;;;8.08;88.86;101138.18;1767076;80;21153;-53
2020/12/24 10:09:13;;;;;;;34.88;17.27;;;;;;;8.06;88.65;101138.67;1759583;80;21536;-53
2020/12/24 10:11:47;;;;;;;38.95;18.05;;;;;;;8.06;88.59;101138.67;1759745;80;21032;-53
2020/12/24 10:14:14;;;;;;;38.92;18.57;;;;;;;8.05;88.61;101136.91;1755517;80;21048;-55
2020/12/24 10:16:42;;;;;;;34.27;18.30;;;;;;;8.03;88.46;101135.58;1755330;81;21548;-53
2020/12/24 10:19:10;;;;;;;37.45;17.52;;;;;;;7.98;88.53;101137.94;1755358;81;21403;-53
2020/12/24 10:21:41;;;;;;;35.05;18.35;;;;;;;7.97;88.71;101133.03;1755228;81;21466;-54
2020/12/24 10:24:10;;;;;;;35.23;18.52;;;;;;;7.97;88.77;101122.83;1754179;81;21105;-53
2020/12/24 10:26:38;;;;;;;38.63;18.92;;;;;;;7.94;88.97;101113.51;1755217;81;20997;-53
2020/12/24 10:29:06;;;;;;;34.05;18.32;;;;;;;7.92;89.11;101113.55;1755373;81;21612;-53
2020/12/24 10:31:35;;;;;;;38.55;19.15;;;;;;;7.89;89.23;101106.47;1755210;81;21155;-53
2020/12/24 10:34:03;;;;;;;33.13;18.07;;;;;;;7.88;89.46;101106.52;1755310;81;22183;-53
2020/12/24 10:36:32;;;;;;;40.20;18.95;;;;;;;7.89;89.44;101102.94;1755140;81;20926;-54
2020/12/24 10:39:01;;;;;;;36.20;18.32;;;;;;;7.88;89.52;101098.51;1755172;81;21520;-54
2020/12/24 10:41:29;;;;;;;37.75;18.23;;;;;;;7.87;89.45;101100.28;1755262;81;21577;-53
2020/12/24 10:43:56;;;;;;;37.08;18.87;;;;;;;7.88;89.42;101099.84;1755273;81;21141;-53
2020/12/24 10:46:28;;;;;;;36.30;18.60;;;;;;;7.87;89.19;101090.08;1755245;81;21152;-53
2020/12/24 10:48:56;;;;;;;32.42;17.92;;;;;;;7.84;89.31;101088.77;1755275;81;21577;-52
2020/12/24 10:51:24;;;;;;;45.12;20.23;;;;;;;7.81;89.54;101094.16;1755178;81;21169;-54
2020/12/24 10:53:54;;;;;;;35.80;18.15;;;;;;;7.78;89.62;101085.77;1755318;81;21485;-54
2020/12/24 10:56:22;;;;;;;38.55;19.05;;;;;;;7.81;89.75;101078.15;1755261;81;21053;-54
2020/12/24 10:58:50;;;;;;;44.05;18.52;;;;;;;7.80;89.56;101085.73;1757639;80;22010;-55
2020/12/24 11:01:18;;;;;;;41.42;20.88;;;;;;;7.78;89.66;101073.77;1729569;83;20999;-54
2020/12/24 11:03:48;;;;;;;35.85;18.27;;;;;;;7.77;89.77;101069.34;1761384;81;21006;-53
2020/12/24 11:06:23;;;;;;;34.70;16.93;;;;;;;7.79;89.98;101065.28;1777638;80;21565;-53
2020/12/24 11:08:52;;;;;;;36.00;18.50;;;;;;;7.83;89.88;101068.31;1779299;80;21163;-52
2020/12/24 11:11:22;;;;;;;33.98;18.37;;;;;;;7.82;89.71;101063.89;1764140;80;21437;-53
2020/12/24 11:13:52;;;;;;;34.65;17.98;;;;;;;7.81;89.75;101064.80;1777199;78;21066;-53
2020/12/24 11:16:24;;;;;;;36.30;17.48;;;;;;;7.81;89.80;101056.79;1777373;80;21075;-53
2020/12/24 11:18:55;;;;;;;32.40;17.67;;;;;;;7.77;89.91;101052.42;1792647;80;21043;-54
2020/12/24 11:21:24;;;;;;;33.90;16.45;;;;;;;7.73;89.99;101049.81;1792724;80;20924;-52
2020/12/24 11:23:53;;;;;;;31.62;16.55;;;;;;;7.72;90.11;101052.50;1792801;79;21220;-53
2020/12/24 11:26:25;;;;;;;36.93;17.67;;;;;;;7.68;90.21;101043.69;1792915;80;21548;-54